createdAt,value
2022-08-26T00:01:55.957Z,7.20
2022-08-26T00:04:27.005Z,6.43
2022-08-26T00:06:58.068Z,6.82
2022-08-26T00:09:28.538Z,6.68
2022-08-26T00:11:58.379Z,6.38
2022-08-26T00:14:30.934Z,6.70
2022-08-26T00:17:01.337Z,7.28
2022-08-26T00:19:31.206Z,8.02
2022-08-26T00:22:00.945Z,6.65
2022-08-26T00:24:31.803Z,7.53
2022-08-26T00:27:01.796Z,7.50
2022-08-26T00:29:35.513Z,8.13
2022-08-26T00:32:08.233Z,7.43
2022-08-26T00:34:41.495Z,6.35
2022-08-26T00:37:15.647Z,5.65
2022-08-26T00:39:46.490Z,6.18
2022-08-26T00:42:16.303Z,8.13
2022-08-26T00:44:47.170Z,7.03
2022-08-26T00:47:45.413Z,7.03
2022-08-26T00:50:21.880Z,8.88
2022-08-26T00:52:54.740Z,7.93
2022-08-26T00:55:41.990Z,8.35
2022-08-26T00:58:13.089Z,7.28
2022-08-26T01:00:42.924Z,8.23
2022-08-26T01:03:16.699Z,8.45
2022-08-26T01:05:47.696Z,7.63
2022-08-26T01:08:18.068Z,8.02
2022-08-26T01:10:47.992Z,8.13
2022-08-26T01:13:22.194Z,8.98
2022-08-26T01:15:59.406Z,8.63
2022-08-26T01:18:31.267Z,7.45
2022-08-26T01:21:17.266Z,7.15
2022-08-26T01:23:51.095Z,7.03
2022-08-26T01:26:40.545Z,6.93
2022-08-26T01:29:18.940Z,7.63
2022-08-26T01:31:59.906Z,6.80
2022-08-26T01:34:33.902Z,7.35
2022-08-26T01:37:16.710Z,7.57
2022-08-26T01:39:51.200Z,8.55
2022-08-26T01:42:23.772Z,11.18
2022-08-26T01:45:02.416Z,9.07
2022-08-26T01:47:34.861Z,8.73
2022-08-26T01:50:10.629Z,8.13
2022-08-26T01:52:44.451Z,8.70
2022-08-26T01:55:32.221Z,8.90
2022-08-26T01:58:08.168Z,8.75
2022-08-26T02:00:39.936Z,8.65
2022-08-26T02:03:18.813Z,8.95
2022-08-26T02:05:57.020Z,9.80
2022-08-26T02:08:37.063Z,8.13
2022-08-26T02:11:08.026Z,7.45
2022-08-26T02:13:46.409Z,7.88
2022-08-26T02:16:23.176Z,7.72
2022-08-26T02:18:55.270Z,8.40
2022-08-26T02:21:25.487Z,8.20
2022-08-26T02:23:56.003Z,6.68
2022-08-26T02:26:29.820Z,6.25
2022-08-26T02:29:17.043Z,7.53
2022-08-26T02:31:49.609Z,7.82
2022-08-26T02:34:28.238Z,6.63
2022-08-26T02:37:04.346Z,8.30
2022-08-26T02:39:38.737Z,7.40
2022-08-26T02:42:09.280Z,6.40
2022-08-26T02:44:39.859Z,8.73
2022-08-26T02:47:10.122Z,7.45
2022-08-26T02:49:40.307Z,7.28
2022-08-26T02:52:14.535Z,7.47
2022-08-26T02:54:44.344Z,6.93
2022-08-26T02:57:16.369Z,8.07
2022-08-26T02:59:46.632Z,7.65
2022-08-26T03:02:18.414Z,7.43
2022-08-26T03:04:58.056Z,7.63
2022-08-26T03:07:32.140Z,6.88
2022-08-26T03:10:06.863Z,7.85
2022-08-26T03:12:38.583Z,7.22
2022-08-26T03:15:16.000Z,7.10
2022-08-26T03:17:51.470Z,8.30
2022-08-26T03:20:21.641Z,8.18
2022-08-26T03:22:54.364Z,7.43
2022-08-26T03:25:27.523Z,7.82
2022-08-26T03:27:59.462Z,7.72
2022-08-26T03:30:45.343Z,8.52
2022-08-26T03:33:16.753Z,8.88
2022-08-26T03:35:50.581Z,8.35
2022-08-26T03:38:23.477Z,7.38
2022-08-26T03:40:53.914Z,7.32
2022-08-26T03:43:27.807Z,7.50
2022-08-26T03:45:57.908Z,7.85
2022-08-26T03:48:27.689Z,8.18
2022-08-26T03:50:57.386Z,8.23
2022-08-26T03:53:27.948Z,7.18
2022-08-26T03:55:58.575Z,8.75
2022-08-26T03:58:28.316Z,7.68
2022-08-26T04:00:58.032Z,9.20
2022-08-26T04:03:47.822Z,7.82
2022-08-26T04:06:18.905Z,10.05
2022-08-26T04:08:49.531Z,7.88
2022-08-26T04:11:21.124Z,8.63
2022-08-26T04:13:51.783Z,8.85
2022-08-26T04:16:21.559Z,8.68
2022-08-26T04:18:52.644Z,8.77
2022-08-26T04:21:22.607Z,7.90
2022-08-26T04:23:53.232Z,8.13
2022-08-26T04:26:24.659Z,8.95
2022-08-26T04:28:56.516Z,9.75
2022-08-26T04:31:27.361Z,8.52
2022-08-26T04:34:01.097Z,9.30
2022-08-26T04:36:30.983Z,7.97
2022-08-26T04:39:02.763Z,9.77
2022-08-26T04:41:33.024Z,7.80
2022-08-26T04:44:04.247Z,8.77
2022-08-26T04:46:34.807Z,9.32
2022-08-26T04:49:09.386Z,8.07
2022-08-26T04:51:40.706Z,8.75
2022-08-26T04:54:11.375Z,7.85
2022-08-26T04:56:44.021Z,10.02
2022-08-26T04:59:18.703Z,7.88
2022-08-26T05:01:53.380Z,8.63
2022-08-26T05:04:23.363Z,9.05
2022-08-26T05:06:55.733Z,10.07
2022-08-26T05:09:29.685Z,8.18
2022-08-26T05:12:00.819Z,7.85
2022-08-26T05:14:30.567Z,8.70
2022-08-26T05:17:00.300Z,8.43
2022-08-26T05:19:30.075Z,8.65
2022-08-26T05:22:00.521Z,8.23
2022-08-26T05:24:31.406Z,8.70
2022-08-26T05:27:01.512Z,10.13
2022-08-26T05:29:31.768Z,10.30
2022-08-26T05:32:02.721Z,9.02
2022-08-26T05:34:32.490Z,9.85
2022-08-26T05:37:02.576Z,10.80
2022-08-26T05:39:35.096Z,10.32
2022-08-26T05:42:06.951Z,9.10
2022-08-26T05:44:53.619Z,9.18
2022-08-26T05:47:26.541Z,8.88
2022-08-26T05:49:58.260Z,8.40
2022-08-26T05:52:28.234Z,8.65
2022-08-26T05:54:58.192Z,8.93
2022-08-26T05:57:31.017Z,8.90
2022-08-26T06:00:01.514Z,10.00
2022-08-26T06:02:41.582Z,9.48
2022-08-26T06:05:11.512Z,9.40
2022-08-26T06:07:59.168Z,9.27
2022-08-26T06:10:32.348Z,10.13
2022-08-26T06:13:09.186Z,9.45
2022-08-26T06:15:44.296Z,11.63
2022-08-26T06:18:17.171Z,9.18
2022-08-26T06:20:57.133Z,8.90
2022-08-26T06:23:48.205Z,10.32
2022-08-26T06:26:18.765Z,8.85
2022-08-26T06:28:48.507Z,9.20
2022-08-26T06:31:18.351Z,10.65
2022-08-26T06:33:48.605Z,12.23
2022-08-26T06:36:24.935Z,9.30
2022-08-26T06:38:57.215Z,10.45
2022-08-26T06:41:27.859Z,9.77
2022-08-26T06:43:58.725Z,9.80
2022-08-26T06:46:29.803Z,10.25
2022-08-26T06:48:59.832Z,11.60
2022-08-26T06:51:33.361Z,10.55
2022-08-26T06:54:06.958Z,9.65
2022-08-26T06:56:40.662Z,10.77
2022-08-26T06:59:13.371Z,12.38
2022-08-26T07:01:47.955Z,10.82
2022-08-26T07:04:20.332Z,11.88
2022-08-26T07:06:54.348Z,10.82
2022-08-26T07:09:27.287Z,9.82
2022-08-26T07:14:30.691Z,10.55
2022-08-26T07:17:02.075Z,10.77
2022-08-26T07:19:32.221Z,11.50
2022-08-26T07:22:04.146Z,11.27
2022-08-26T07:24:37.009Z,12.20
2022-08-26T07:27:09.656Z,11.65
2022-08-26T07:29:41.180Z,12.95
2022-08-26T07:32:13.754Z,12.18
2022-08-26T07:34:44.175Z,13.10
2022-08-26T07:37:13.937Z,12.55
2022-08-26T07:39:44.052Z,13.75
2022-08-26T07:42:16.651Z,14.52
2022-08-26T07:44:49.914Z,15.30
2022-08-26T07:47:25.535Z,13.07
2022-08-26T07:49:58.460Z,10.45
2022-08-26T07:52:31.287Z,13.02
2022-08-26T07:55:03.633Z,12.95
2022-08-26T07:57:35.647Z,12.70
2022-08-26T08:00:14.343Z,14.55
2022-08-26T08:02:48.060Z,12.57
2022-08-26T08:05:22.180Z,12.45
2022-08-26T08:08:26.254Z,14.73
2022-08-26T08:10:48.772Z,12.02
2022-08-26T08:13:19.092Z,12.23
2022-08-26T08:15:50.457Z,11.23
2022-08-26T08:18:22.063Z,13.10
2022-08-26T08:20:59.155Z,12.50
2022-08-26T08:23:29.443Z,11.00
2022-08-26T08:26:06.634Z,11.77
2022-08-26T08:28:39.796Z,14.93
2022-08-26T08:31:38.633Z,13.95
2022-08-26T08:34:10.692Z,12.13
2022-08-26T08:36:40.926Z,13.48
2022-08-26T08:39:11.767Z,11.98
2022-08-26T08:42:11.993Z,14.15
2022-08-26T08:44:52.202Z,13.18
2022-08-26T08:47:35.091Z,13.55
2022-08-26T08:50:18.530Z,11.65
2022-08-26T08:53:12.543Z,11.55
2022-08-26T08:56:24.875Z,11.82
2022-08-26T08:59:15.657Z,13.57
2022-08-26T09:01:54.202Z,15.27
2022-08-26T09:04:36.101Z,12.85
2022-08-26T09:07:10.398Z,13.65
2022-08-26T09:09:40.296Z,14.93
2022-08-26T09:12:33.894Z,15.32
2022-08-26T09:15:18.614Z,15.27
2022-08-26T09:17:56.165Z,15.02
2022-08-26T09:20:56.669Z,15.75
2022-08-26T09:23:27.963Z,14.38
2022-08-26T09:26:01.840Z,15.48
2022-08-26T09:28:33.057Z,14.13
2022-08-26T09:31:43.839Z,15.18
2022-08-26T09:34:27.119Z,12.18
2022-08-26T09:37:00.019Z,14.07
2022-08-26T09:39:39.777Z,14.38
2022-08-26T09:42:26.561Z,15.00
2022-08-26T09:45:11.591Z,15.32
2022-08-26T09:47:48.221Z,15.38
2022-08-26T09:50:31.913Z,15.13
2022-08-26T09:53:15.608Z,14.13
2022-08-26T09:55:49.026Z,15.43
2022-08-26T09:58:35.270Z,14.35
2022-08-26T10:01:10.878Z,15.10
2022-08-26T10:03:42.200Z,15.18
2022-08-26T10:06:21.157Z,17.55
2022-08-26T10:08:59.472Z,15.27
2022-08-26T10:11:48.088Z,18.30
2022-08-26T10:17:39.188Z,18.08
2022-08-26T10:20:28.520Z,17.85
2022-08-26T10:23:14.444Z,22.33
2022-08-26T10:25:56.946Z,21.63
2022-08-26T10:28:29.536Z,21.05
2022-08-26T10:31:28.979Z,21.15
2022-08-26T10:34:00.665Z,20.65
2022-08-26T10:37:13.857Z,22.35
2022-08-26T10:39:49.169Z,21.63
2022-08-26T10:42:43.880Z,21.92
2022-08-26T10:45:23.657Z,20.58
2022-08-26T10:48:02.567Z,21.25
2022-08-26T10:50:39.768Z,21.23
2022-08-26T10:53:12.435Z,21.13
2022-08-26T10:55:51.938Z,18.98
2022-08-26T10:58:56.760Z,19.17
2022-08-26T11:01:51.025Z,18.42
2022-08-26T11:04:26.341Z,18.13
2022-08-26T11:07:34.074Z,16.77
2022-08-26T11:10:08.625Z,19.90
2022-08-26T11:12:38.650Z,16.85
2022-08-26T11:15:29.204Z,18.50
2022-08-26T11:18:05.884Z,18.73
2022-08-26T11:20:42.842Z,21.45
2022-08-26T11:23:24.634Z,19.58
2022-08-26T11:26:01.364Z,16.95
2022-08-26T11:28:51.465Z,17.08
2022-08-26T11:31:28.345Z,15.02
2022-08-26T11:34:08.750Z,17.55
2022-08-26T11:36:47.020Z,15.48
2022-08-26T11:39:29.897Z,14.48
2022-08-26T11:42:04.843Z,13.88
2022-08-26T11:44:42.000Z,15.23
2022-08-26T11:47:31.397Z,13.98
2022-08-26T11:50:36.498Z,14.30
2022-08-26T11:53:07.863Z,15.48
2022-08-26T11:55:46.059Z,15.40
2022-08-26T11:58:18.258Z,17.75
2022-08-26T12:00:48.313Z,13.40
2022-08-26T12:03:25.128Z,14.68
2022-08-26T12:05:56.271Z,17.80
2022-08-26T12:08:29.530Z,15.68
2022-08-26T12:11:09.798Z,14.50
2022-08-26T12:13:40.312Z,15.95
2022-08-26T12:16:10.727Z,17.42
2022-08-26T12:18:41.098Z,15.20
2022-08-26T12:21:24.574Z,15.75
2022-08-26T12:23:57.599Z,16.23
2022-08-26T12:26:38.386Z,19.58
2022-08-26T12:29:20.117Z,18.25
2022-08-26T12:32:16.348Z,16.40
2022-08-26T12:34:50.278Z,16.92
2022-08-26T12:37:20.744Z,19.65
2022-08-26T12:39:50.705Z,17.25
2022-08-26T12:42:43.640Z,17.77
2022-08-26T12:45:13.821Z,18.10
2022-08-26T12:47:45.033Z,18.63
2022-08-26T12:50:34.893Z,20.90
2022-08-26T12:53:17.153Z,17.23
2022-08-26T12:55:53.970Z,18.88
2022-08-26T12:58:40.976Z,17.10
2022-08-26T13:01:11.422Z,17.70
2022-08-26T13:03:44.945Z,18.98
2022-08-26T13:06:24.644Z,18.50
2022-08-26T13:08:58.944Z,18.42
2022-08-26T13:11:34.289Z,20.08
2022-08-26T13:14:08.365Z,17.90
2022-08-26T13:16:40.421Z,17.67
2022-08-26T13:19:13.137Z,16.60
2022-08-26T13:21:49.005Z,18.30
2022-08-26T13:24:25.474Z,17.75
2022-08-26T13:26:55.700Z,17.25
2022-08-26T13:29:26.497Z,17.70
2022-08-26T13:31:56.566Z,17.58
2022-08-26T13:34:28.371Z,17.52
2022-08-26T13:36:59.592Z,18.88
2022-08-26T13:39:29.735Z,17.65
2022-08-26T13:41:59.547Z,17.50
2022-08-26T13:44:29.340Z,17.27
2022-08-26T13:46:59.071Z,16.63
2022-08-26T13:49:28.874Z,15.80
2022-08-26T13:51:58.718Z,15.38
2022-08-26T13:54:28.472Z,14.27
2022-08-26T13:56:58.429Z,13.88
2022-08-26T13:59:29.431Z,12.85
2022-08-26T14:02:00.001Z,14.85
2022-08-26T14:04:30.198Z,12.20
2022-08-26T14:07:01.049Z,11.02
2022-08-26T14:09:32.117Z,10.95
2022-08-26T14:12:03.780Z,11.43
2022-08-26T14:14:33.709Z,11.30
2022-08-26T14:17:03.570Z,10.32
2022-08-26T14:19:33.472Z,9.85
2022-08-26T14:22:03.453Z,10.30
2022-08-26T14:24:33.165Z,10.43
2022-08-26T14:27:02.907Z,9.95
2022-08-26T14:29:32.828Z,9.98
2022-08-26T14:32:12.539Z,10.38
2022-08-26T14:34:44.053Z,8.40
2022-08-26T14:37:15.424Z,8.90
2022-08-26T14:39:47.116Z,8.70
2022-08-26T14:42:21.882Z,7.95
2022-08-26T14:44:57.617Z,8.65
2022-08-26T14:47:29.242Z,8.82
2022-08-26T14:50:00.241Z,8.75
2022-08-26T14:52:30.845Z,8.20
2022-08-26T14:55:00.543Z,7.07
2022-08-26T14:57:30.303Z,7.53
2022-08-26T15:00:01.176Z,10.45
2022-08-26T15:02:33.860Z,6.95
2022-08-26T15:05:05.551Z,6.85
2022-08-26T15:07:36.068Z,7.40
2022-08-26T15:10:08.146Z,13.90
2022-08-26T15:12:38.800Z,7.10
2022-08-26T15:15:10.251Z,6.72
2022-08-26T15:17:41.247Z,9.48
2022-08-26T15:20:12.741Z,7.43
2022-08-26T15:22:44.317Z,8.20
2022-08-26T15:25:15.398Z,7.22
2022-08-26T15:27:46.171Z,7.68
2022-08-26T15:30:17.696Z,7.75
2022-08-26T15:32:47.863Z,8.25
2022-08-26T15:35:18.039Z,7.57
2022-08-26T15:37:47.871Z,8.85
2022-08-26T15:40:21.964Z,7.47
2022-08-26T15:43:01.151Z,8.43
2022-08-26T15:45:36.189Z,8.20
2022-08-26T15:48:06.430Z,8.07
2022-08-26T15:50:36.167Z,6.57
2022-08-26T15:53:06.783Z,6.70
2022-08-26T15:55:36.525Z,6.47
2022-08-26T15:58:07.027Z,6.57
2022-08-26T16:00:38.441Z,6.72
2022-08-26T16:03:09.225Z,6.80
2022-08-26T16:05:45.522Z,7.30
2022-08-26T16:08:16.773Z,7.13
2022-08-26T16:10:50.646Z,6.72
2022-08-26T16:13:21.883Z,6.32
2022-08-26T16:15:51.958Z,6.78
2022-08-26T16:18:23.645Z,6.07
2022-08-26T16:21:12.366Z,6.75
2022-08-26T16:23:45.361Z,6.38
2022-08-26T16:26:18.703Z,9.82
2022-08-26T16:28:48.844Z,6.82
2022-08-26T16:31:18.873Z,6.82
2022-08-26T16:33:48.855Z,6.90
2022-08-26T16:36:18.921Z,6.97
2022-08-26T16:38:55.287Z,6.00
2022-08-26T16:41:31.259Z,6.45
2022-08-26T16:44:01.473Z,6.05
2022-08-26T16:46:31.322Z,6.38
2022-08-26T16:49:04.619Z,6.32
2022-08-26T16:51:38.114Z,6.25
2022-08-26T16:54:10.970Z,8.50
2022-08-26T16:56:41.584Z,8.70
2022-08-26T16:59:12.597Z,8.10
2022-08-26T17:01:42.758Z,7.05
2022-08-26T17:04:12.498Z,6.53
2022-08-26T17:06:42.483Z,6.03
2022-08-26T17:09:12.213Z,5.88
2022-08-26T17:11:42.021Z,6.13
2022-08-26T17:14:12.519Z,5.82
2022-08-26T17:16:43.178Z,7.00
2022-08-26T17:19:13.038Z,6.00
2022-08-26T17:21:42.826Z,5.30
2022-08-26T17:24:12.746Z,6.20
2022-08-26T17:26:48.444Z,5.50
2022-08-26T17:31:53.950Z,5.53
2022-08-26T17:34:24.330Z,5.78
2022-08-26T17:36:54.090Z,6.82
2022-08-26T17:39:24.463Z,6.38
2022-08-26T17:41:54.202Z,5.20
2022-08-26T17:44:23.946Z,5.50
2022-08-26T17:46:54.011Z,5.25
2022-08-26T17:49:23.810Z,5.03
2022-08-26T17:51:53.541Z,5.50
2022-08-26T17:54:23.308Z,5.45
2022-08-26T17:56:53.156Z,4.65
2022-08-26T17:59:30.556Z,5.35
2022-08-26T18:02:01.275Z,5.35
2022-08-26T18:04:31.107Z,5.50
2022-08-26T18:07:00.825Z,4.88
2022-08-26T18:09:33.687Z,5.18
2022-08-26T18:12:03.772Z,4.95
2022-08-26T18:14:35.128Z,4.80
2022-08-26T18:17:05.833Z,5.43
2022-08-26T18:19:35.786Z,5.53
2022-08-26T18:22:07.795Z,6.70
2022-08-26T18:24:37.911Z,6.18
2022-08-26T18:27:07.798Z,5.68
2022-08-26T18:29:37.622Z,6.57
2022-08-26T18:32:16.789Z,5.72
2022-08-26T18:34:46.894Z,7.75
2022-08-26T18:37:16.765Z,6.22
2022-08-26T18:39:46.730Z,5.30
2022-08-26T18:42:16.656Z,5.65
2022-08-26T18:44:46.460Z,6.50
2022-08-26T18:47:16.170Z,6.55
2022-08-26T18:49:48.295Z,5.43
2022-08-26T18:52:18.614Z,5.60
2022-08-26T18:54:48.735Z,5.82
2022-08-26T18:57:18.461Z,5.88
2022-08-26T18:59:48.229Z,5.97
2022-08-26T19:02:18.137Z,6.05
2022-08-26T19:04:47.909Z,5.28
2022-08-26T19:07:17.674Z,5.88
2022-08-26T19:09:47.480Z,5.20
2022-08-26T19:12:26.953Z,5.50
2022-08-26T19:14:57.371Z,5.35
2022-08-26T19:17:30.470Z,5.65
2022-08-26T19:20:00.215Z,5.43
2022-08-26T19:22:30.371Z,5.35
2022-08-26T19:25:00.197Z,5.47
2022-08-26T19:27:30.668Z,5.40
2022-08-26T19:30:01.076Z,5.40
2022-08-26T19:32:31.155Z,5.50
2022-08-26T19:35:00.871Z,5.25
2022-08-26T19:37:30.701Z,6.50
2022-08-26T19:40:00.479Z,5.50
2022-08-26T19:42:30.930Z,5.43
2022-08-26T19:45:24.304Z,6.28
2022-08-26T19:47:56.079Z,5.90
2022-08-26T19:50:29.226Z,5.95
2022-08-26T19:53:01.134Z,6.40
2022-08-26T19:55:31.356Z,6.25
2022-08-26T19:58:01.126Z,6.28
2022-08-26T20:00:32.910Z,7.13
2022-08-26T20:03:03.521Z,6.95
2022-08-26T20:05:33.453Z,6.97
2022-08-26T20:08:03.305Z,8.45
2022-08-26T20:10:35.491Z,7.53
2022-08-26T20:13:05.733Z,8.50
2022-08-26T20:15:39.034Z,8.65
2022-08-26T20:18:29.385Z,7.95
2022-08-26T20:21:18.494Z,7.90
2022-08-26T20:23:49.053Z,8.40
2022-08-26T20:26:19.873Z,7.22
2022-08-26T20:28:51.011Z,7.50
2022-08-26T20:31:21.584Z,6.15
2022-08-26T20:33:52.704Z,6.20
2022-08-26T20:36:27.003Z,5.93
2022-08-26T20:38:59.124Z,6.05
2022-08-26T20:41:30.073Z,7.03
2022-08-26T20:44:00.941Z,6.10
2022-08-26T20:46:31.449Z,5.93
2022-08-26T20:49:01.305Z,5.47
2022-08-26T20:51:31.307Z,5.40
2022-08-26T20:54:02.462Z,5.75
2022-08-26T20:56:32.578Z,6.50
2022-08-26T20:59:04.505Z,5.95
2022-08-26T21:01:37.282Z,5.57
2022-08-26T21:04:15.400Z,5.43
2022-08-26T21:06:52.240Z,5.40
2022-08-26T21:09:24.960Z,5.85
2022-08-26T21:11:56.274Z,5.07
2022-08-26T21:14:26.398Z,5.63
2022-08-26T21:16:56.833Z,5.40
2022-08-26T21:19:27.824Z,5.03
2022-08-26T21:21:57.621Z,5.30
2022-08-26T21:24:27.409Z,5.63
2022-08-26T21:26:57.139Z,6.63
2022-08-26T21:29:27.541Z,5.50
2022-08-26T21:31:58.625Z,6.45
2022-08-26T21:34:28.968Z,5.75
2022-08-26T21:36:59.619Z,5.22
2022-08-26T21:39:29.388Z,5.40
2022-08-26T21:41:59.965Z,5.82
2022-08-26T21:44:30.528Z,5.95
2022-08-26T21:47:00.255Z,5.07
2022-08-26T21:49:30.296Z,4.70
2022-08-26T21:52:00.072Z,5.43
2022-08-26T21:54:29.966Z,4.95
2022-08-26T21:56:59.976Z,4.85
2022-08-26T21:59:30.614Z,4.55
2022-08-26T22:02:00.608Z,3.90
2022-08-26T22:04:30.576Z,3.42
2022-08-26T22:07:00.308Z,4.10
2022-08-26T22:09:34.451Z,3.92
2022-08-26T22:12:05.115Z,3.00
2022-08-26T22:14:35.866Z,4.05
2022-08-26T22:17:05.885Z,3.45
2022-08-26T22:19:45.696Z,2.50
2022-08-26T22:22:17.181Z,3.70
2022-08-26T22:24:46.902Z,2.95
2022-08-26T22:27:16.676Z,3.30
2022-08-26T22:29:49.033Z,3.60
2022-08-26T22:32:19.661Z,3.00
2022-08-26T22:34:49.675Z,3.15
2022-08-26T22:37:19.398Z,3.35
2022-08-26T22:39:49.162Z,3.25
2022-08-26T22:42:18.914Z,2.70
2022-08-26T22:44:48.652Z,2.95
2022-08-26T22:47:19.571Z,3.40
2022-08-26T22:49:49.680Z,3.58
2022-08-26T22:52:19.432Z,3.10
2022-08-26T22:54:50.247Z,3.17
2022-08-26T22:57:22.852Z,3.67
2022-08-26T22:59:52.757Z,3.58
2022-08-26T23:02:22.503Z,4.00
2022-08-26T23:04:53.390Z,3.65
2022-08-26T23:07:24.156Z,3.72
2022-08-26T23:09:54.373Z,3.75
2022-08-26T23:12:24.140Z,4.05
2022-08-26T23:14:54.031Z,3.85
2022-08-26T23:17:23.784Z,3.22
2022-08-26T23:19:56.423Z,3.83
2022-08-26T23:22:26.572Z,3.72
2022-08-26T23:24:56.278Z,2.97
2022-08-26T23:27:26.063Z,3.17
2022-08-26T23:29:56.470Z,3.20
2022-08-26T23:32:26.335Z,3.80
2022-08-26T23:34:59.959Z,3.78
2022-08-26T23:37:34.705Z,3.88
2022-08-26T23:42:42.364Z,3.78
2022-08-26T23:45:22.697Z,3.05
2022-08-26T23:48:14.347Z,3.90
2022-08-26T23:54:36.715Z,3.92
